Nearby METAR Reports

 

KBAX - Bad Axe, Michigan, USA
Distance from station: ESE 22mi, 35km
Updated: Mon, 10-Dec-2018 8:56pm EST
Clear
Clear
 Wind from S
Wind: S 13 mph , 20 km/h
Temperature: 27°F , -3°C
Wind Chill: 16°F , -9°C
Dew Point: 23°F , -5°C
Humidity: 86%
Barometer: 30.06 inHg , 1017.9 hPa
Clouds: Clear
Visibility: 10 miles , 16 km
2018/12/11 01:56 KBAX 110156Z AUTO 19011KT 10SM CLR M03/M05 A3006 RMK AO2 T10311052
KFNT - Flint, Michigan, USA
Distance from station: SSW 68mi, 109km
Updated: Mon, 10-Dec-2018 8:53pm EST
Clear
Clear
 Wind from SSW
Wind: SSW 8 mph , 13 km/h
Temperature: 27°F , -3°C
Wind Chill: 19°F , -7°C
Dew Point: 21°F , -6°C
Humidity: 80%
Barometer: 30.10 inHg , 1019.3 hPa
Clouds: Clear
Visibility: 9 miles , 14 km
2018/12/11 01:53 KFNT 110153Z 20007KT 9SM CLR M03/M06 A3010 RMK AO2 SLP206 T10331056
KMBS - Saginaw, Michigan, USA
Distance from station: SW 44mi, 70km
Updated: Mon, 10-Dec-2018 8:53pm EST
Clear
Clear
 Wind from SSW
Wind: SSW 13 mph , 20 km/h
Temperature: 30°F , -1°C
Wind Chill: 20°F , -7°C
Dew Point: 23°F , -5°C
Humidity: 75%
Barometer: 30.06 inHg , 1017.9 hPa
Clouds: Clear
Visibility: 9 miles , 14 km
2018/12/11 01:53 KMBS 110153Z 20011KT 9SM CLR M01/M05 A3006 RMK AO2 SLP188 T10111050
 
KDTW - Detroit/Wayne, Michigan, USA
Distance from station: SSE 117mi, 188km
Updated: Mon, 10-Dec-2018 8:53pm EST
Haze, Mostly cloudy
Haze, Mostly cloudy
 Wind from SSW
Wind: SSW 12 mph , 19 km/h
Temperature: 27°F , -3°C
Wind Chill: 16°F , -9°C
Dew Point: 21°F , -6°C
Humidity: 80%
Barometer: 30.17 inHg , 1021.7 hPa
Summary: Haze
Clouds: Mostly cloudy
Visibility: 6 miles , 10 km
Cloud details: Mostly cloudy 2000 ft
2018/12/11 01:53 KDTW 110153Z 20010KT 6SM HZ BKN020 M03/M06 A3017 RMK AO2 SLP224 T10281061
KP58 - Port Hope, Michigan, USA
Distance from station: ENE 30mi, 48km
Updated: Mon, 10-Dec-2018 8:51pm EST

 Wind from varies
Wind: varies 5 mph , 7 km/h
Temperature: 27°F , -3°C
Wind Chill: 21°F , -6°C
Dew Point: 21°F , -6°C
Humidity: 80%
Barometer: 30.04 inHg , 1017.3 hPa
2018/12/11 01:51 KP58 110151Z AUTO VRB04KT M03/M06 A3004 RMK AO1 SLP185 T10331061
KCFS - Caro/Tuscola, Michigan, USA
Distance from station: S 31mi, 50km
Updated: Mon, 10-Dec-2018 8:55pm EST
Clear
Clear
 Wind from S
Wind: S 7 mph , 11 km/h
Temperature: 25°F , -4°C
Wind Chill: 17°F , -8°C
Dew Point: 23°F , -5°C
Humidity: 93%
Barometer: 30.07 inHg , 1018.3 hPa
Clouds: Clear
Visibility: 7 miles , 11 km
2018/12/11 01:55 KCFS 110155Z AUTO 19006KT 7SM CLR M04/M05 A3007 RMK AO2 T10411052
 
KPHN - Port Huron, Michigan, USA
Distance from station: SSE 81mi, 131km
Updated: Mon, 10-Dec-2018 8:55pm EST
Partly cloudy
Partly cloudy
 Wind from S
Wind: S 5 mph , 7 km/h
Temperature: 25°F , -4°C
Wind Chill: 19°F , -7°C
Dew Point: 21°F , -6°C
Humidity: 86%
Barometer: 30.14 inHg , 1020.7 hPa
Clouds: Partly cloudy
Visibility: 7 miles , 11 km
Cloud details: Partly cloudy 2200 ft
2018/12/11 01:55 KPHN 110155Z AUTO 19004KT 7SM SCT022 M04/M06 A3014 RMK AO2
KPTK - Pontiac, Michigan, USA
Distance from station: S 86mi, 138km
Updated: Mon, 10-Dec-2018 8:53pm EST
Mist, Clear
Mist, Clear
 Wind from S
Wind: S 7 mph , 11 km/h
Temperature: 25°F , -4°C
Wind Chill: 17°F , -8°C
Dew Point: 21°F , -6°C
Humidity: 86%
Barometer: 30.11 inHg , 1019.6 hPa
Summary: Mist
Clouds: Clear
Visibility: 6 miles , 10 km
2018/12/11 01:53 KPTK 110153Z 19006KT 6SM BR CLR M04/M06 A3011 RMK AO2 SLP209 T10391056
KMTC - Selfridge Angb, Michigan, USA
Distance from station: SSE 94mi, 151km
Updated: Mon, 10-Dec-2018 8:55pm EST
Few Clouds
Few Clouds
 Wind from S
Wind: S 7 mph , 11 km/h
Temperature: 23°F , -5°C
Wind Chill: 15°F , -9°C
Dew Point: 23°F , -5°C
Humidity: 100%
Barometer: 30.13 inHg , 1020.3 hPa
Clouds: Few Clouds
Visibility: 7 miles , 11 km
Cloud details: Few Clouds 2300 ft
2018/12/11 01:55 KMTC 110155Z 18006KT 7SM FEW023 M05/M05 A3013 RMK AO2A SLP217 WND DATA ESTMD T10481051 $